Saint Louis, MO

6:20 PM CDT on August 30, 2015 (GMT -0500)
Graeser Acres | | Change Station
CLOSE
Current Station
Personal Weather Station
Location: St. Louis, MO
Elevation: 614 ft
Nearby Weather Stations

Elev 614 ft 38.68 °N, 90.42 °W | Updated 8 seconds ago

Partly Cloudy
Partly Cloudy
81.9 °F
Feels Like 86 °F
N
0.0
Wind Variable Wind from East
Gusts 0.0 mph

Today
High -- | Low -- °F
--% Chance of Precip.
Yesterday
High -- | Low -- °F
Precip. -- in
6:29 AM 7:35 PM
Full, 98% visible
Pressure 29.96 in
Visibility 10.0 miles
Clouds Scattered Clouds 4400 ft
Mostly Cloudy 10000 ft
Mostly Cloudy 25000 ft
Heat Index 86 °F
Dew Point 71 °F
Humidity 69%
Rainfall 0.00 in
Snow Depth Not available.
UV 1 out of 12
Pollen 10.60 out of 12
Air Quality Not available.
Flu Activity Not available.
METAR KSTL 302251Z 10003KT 10SM SCT044TCU BKN100 BKN250 31/20 A2999 RMK AO2 SLP144 TCU E-SW T03060200 $
Pressure 29.96 in
Visibility 10.0 miles
Clouds Scattered Clouds 4400 ft
Mostly Cloudy 10000 ft
Mostly Cloudy 25000 ft
Heat Index 86 °F
Dew Point 71 °F
Humidity 69%
Rainfall 0.00 in
Snow Depth Not available.
UV 1 out of 12
Pollen 10.60 out of 12
Air Quality Not available.
Flu Activity Not available.
METAR KSTL 302251Z 10003KT 10SM SCT044TCU BKN100 BKN250 31/20 A2999 RMK AO2 SLP144 TCU E-SW T03060200 $

10-Day Weather Forecast

×

Almanac

Astronomy

Aug. 30, 2015 Rise Set
Actual Time
Civil Twilight
Nautical Twilight
Astronomical Twilight
Moon
Length of Visible Light
Length of Day
Tomorrow will be .
, % of the Moon is Illuminated

Today's Extremes

State Highs State Lows

Community

WunderPhotos

Upload Photos

1,851,084 photos uploaded!

WunderBlogs® & News

Nearby

Air Quality

  Air Quality AQ Index Pollutant
Not available.

Snow Depth

Station Depth Elevation

Earthquake Activity

City Distance Mag. Time & Date
Minimum magnitude displayed is 2.5.

Coastal Water Temperatures

Place Temperature

Stations

Nearby Weather Stations

Station Location Temp. Windchill Dew Point Humidity Wind Precip. Elev Updated Type